Time;durP1;ratioP1;P1;durP2;ratioP2;P2;SDS_P1;SDS_P2;PMS_P1;PMS_P2;Temp;Humidity;BMP_temperature;BMP_pressure;BME280_temperature;BME280_humidity;BME280_pressure;Samples;Min_cycle;Max_cycle;Signal;HPM_P1;HPM_P2
2022/05/25 00:00:18;;;;;;;6.13;5.53;;;;;;;;;;2067023;28;20166;-58
2022/05/25 00:01:18;;;;;;;5.43;5.03;;;;;;;;;;2064867;28;20724;-58
2022/05/25 00:02:19;;;;;;;5.97;5.35;;;;;;;;;;2064493;28;20169;-60
2022/05/25 00:03:19;;;;;;;6.30;5.80;;;;;;;;;;2056877;28;20658;-57
2022/05/25 00:04:19;;;;;;;5.80;5.30;;;;;;;;;;2063821;28;20193;-58
2022/05/25 00:05:20;;;;;;;6.88;6.28;;;;;;;;;;2064972;28;20200;-58
2022/05/25 00:06:20;;;;;;;5.75;5.32;;;;;;;;;;2064907;28;20331;-57
2022/05/25 00:07:21;;;;;;;6.13;5.53;;;;;;;;;;2070758;28;20169;-55
2022/05/25 00:08:21;;;;;;;5.90;5.43;;;;;;;;;;2066862;28;20268;-58
2022/05/25 00:09:21;;;;;;;6.05;5.55;;;;;;;;;;2071656;28;20243;-57
2022/05/25 00:10:22;;;;;;;5.45;4.90;;;;;;;;;;2073782;28;20169;-58
2022/05/25 00:11:22;;;;;;;6.32;4.93;;;;;;;;;;2072732;28;20188;-57
2022/05/25 00:12:22;;;;;;;6.93;5.95;;;;;;;;;;2066191;28;20169;-58
2022/05/25 00:13:23;;;;;;;5.30;4.90;;;;;;;;;;2065263;28;20677;-58
2022/05/25 00:14:23;;;;;;;6.47;5.50;;;;;;;;;;2064456;28;20177;-57
2022/05/25 00:15:24;;;;;;;6.13;5.50;;;;;;;;;;2064779;28;20269;-58
2022/05/25 00:16:24;;;;;;;5.88;5.40;;;;;;;;;;2064749;28;20176;-58
2022/05/25 00:17:24;;;;;;;6.47;5.97;;;;;;;;;;2065193;28;20176;-59
2022/05/25 00:18:25;;;;;;;6.88;5.78;;;;;;;;;;2065160;28;20576;-56
2022/05/25 00:20:44;;;;;;;6.55;5.93;;;;;;;;;;2065909;28;20240;-60
2022/05/25 00:21:44;;;;;;;5.63;5.20;;;;;;;;;;2064459;28;20613;-57
2022/05/25 00:22:46;;;;;;;5.93;5.43;;;;;;;;;;2064868;28;20200;-58
2022/05/25 00:23:46;;;;;;;6.63;6.00;;;;;;;;;;2064857;28;20702;-57
2022/05/25 00:24:46;;;;;;;6.50;6.00;;;;;;;;;;2064388;28;20262;-58
2022/05/25 00:25:46;;;;;;;5.78;5.25;;;;;;;;;;2065234;28;20292;-58
2022/05/25 00:26:47;;;;;;;6.85;6.18;;;;;;;;;;2065209;28;20584;-58
2022/05/25 00:27:47;;;;;;;5.82;5.38;;;;;;;;;;2056392;28;20202;-58
2022/05/25 00:28:48;;;;;;;6.35;5.85;;;;;;;;;;2056482;28;20746;-58
2022/05/25 00:29:48;;;;;;;6.85;5.57;;;;;;;;;;2064937;28;20165;-57
2022/05/25 00:30:48;;;;;;;6.68;6.07;;;;;;;;;;2065309;28;20189;-58
2022/05/25 00:31:48;;;;;;;5.72;5.22;;;;;;;;;;2064078;28;20832;-58
2022/05/25 00:32:49;;;;;;;6.90;6.28;;;;;;;;;;2056300;28;20186;-57
2022/05/25 00:33:49;;;;;;;6.30;5.55;;;;;;;;;;2056481;28;20201;-58
2022/05/25 00:34:49;;;;;;;6.90;6.20;;;;;;;;;;2063826;28;20650;-57
2022/05/25 00:35:49;;;;;;;6.72;6.13;;;;;;;;;;2056354;28;20209;-57
2022/05/25 00:36:50;;;;;;;6.10;5.60;;;;;;;;;;2064465;28;20165;-63
2022/05/25 00:37:50;;;;;;;6.55;5.95;;;;;;;;;;2064893;28;20264;-58
2022/05/25 00:38:50;;;;;;;7.07;6.50;;;;;;;;;;2065133;28;20264;-57
2022/05/25 00:39:51;;;;;;;7.35;6.55;;;;;;;;;;2065182;28;20248;-55
2022/05/25 00:40:51;;;;;;;7.57;6.75;;;;;;;;;;2064499;28;20650;-57
2022/05/25 00:41:51;;;;;;;7.32;5.75;;;;;;;;;;2056287;28;20181;-55
2022/05/25 00:42:52;;;;;;;7.35;6.65;;;;;;;;;;2064753;28;20177;-58
2022/05/25 00:43:52;;;;;;;6.57;6.03;;;;;;;;;;2064376;28;20190;-57
2022/05/25 00:44:52;;;;;;;7.05;6.45;;;;;;;;;;2064204;28;20205;-56
2022/05/25 00:45:55;;;;;;;6.90;6.30;;;;;;;;;;2064989;28;20259;-56
2022/05/25 00:46:56;;;;;;;7.18;6.47;;;;;;;;;;2064969;28;20166;-58
2022/05/25 00:47:56;;;;;;;6.35;5.85;;;;;;;;;;2065039;28;20188;-56
2022/05/25 00:48:59;;;;;;;5.82;5.43;;;;;;;;;;2064398;28;20249;-58
2022/05/25 00:50:00;;;;;;;5.90;5.50;;;;;;;;;;2064168;28;20713;-57
2022/05/25 00:51:13;;;;;;;6.70;6.20;;;;;;;;;;2064355;28;20166;-58
2022/05/25 00:52:14;;;;;;;6.70;6.07;;;;;;;;;;2064826;28;20624;-60
2022/05/25 00:53:14;;;;;;;6.55;5.95;;;;;;;;;;2070197;28;20177;-58
2022/05/25 00:54:18;;;;;;;7.15;6.15;;;;;;;;;;2066650;28;20217;-57
2022/05/25 00:55:26;;;;;;;8.48;6.93;;;;;;;;;;2064294;28;20186;-58
2022/05/25 00:56:29;;;;;;;7.07;6.38;;;;;;;;;;2064393;28;20213;-57
2022/05/25 00:57:34;;;;;;;7.22;6.53;;;;;;;;;;2065312;28;20182;-58
2022/05/25 00:58:36;;;;;;;6.90;6.40;;;;;;;;;;2064810;28;20575;-58
2022/05/25 00:59:43;;;;;;;7.70;6.93;;;;;;;;;;2065127;28;20170;-57
2022/05/25 01:00:43;;;;;;;6.80;6.20;;;;;;;;;;2064789;28;20162;-57
2022/05/25 01:01:43;;;;;;;6.47;5.97;;;;;;;;;;2064973;28;20682;-57
2022/05/25 01:02:49;;;;;;;7.32;6.63;;;;;;;;;;2064841;28;20189;-58
2022/05/25 01:03:49;;;;;;;7.35;6.70;;;;;;;;;;2064575;28;20285;-58
2022/05/25 01:04:49;;;;;;;7.47;6.68;;;;;;;;;;2064185;28;20514;-59
2022/05/25 01:05:50;;;;;;;8.10;7.30;;;;;;;;;;2065003;28;20209;-58
2022/05/25 01:06:53;;;;;;;8.57;7.45;;;;;;;;;;2064714;28;20189;-57
2022/05/25 01:07:53;;;;;;;8.68;7.80;;;;;;;;;;2064930;28;20182;-56
2022/05/25 01:09:03;;;;;;;10.77;7.72;;;;;;;;;;2064960;28;20817;-56
2022/05/25 01:10:06;;;;;;;7.85;7.22;;;;;;;;;;2065101;28;20529;-59
2022/05/25 01:11:06;;;;;;;8.10;7.45;;;;;;;;;;2066057;28;20695;-57
2022/05/25 01:12:06;;;;;;;7.75;7.05;;;;;;;;;;2064899;28;20185;-58
2022/05/25 01:13:09;;;;;;;7.53;6.80;;;;;;;;;;2065261;28;20593;-58
2022/05/25 01:14:24;;;;;;;9.68;7.90;;;;;;;;;;2063752;28;20189;-55
2022/05/25 01:15:42;;;;;;;8.45;7.65;;;;;;;;;;2059543;28;20191;-54
2022/05/25 01:16:51;;;;;;;7.68;7.07;;;;;;;;;;2065065;28;20622;-57
2022/05/25 01:18:00;;;;;;;8.57;7.78;;;;;;;;;;2064952;28;20532;-58
2022/05/25 01:19:11;;;;;;;8.18;6.97;;;;;;;;;;2063992;28;20167;-58
2022/05/25 01:20:28;;;;;;;8.07;7.28;;;;;;;;;;2064417;28;20249;-60
2022/05/25 01:21:38;;;;;;;8.45;7.65;;;;;;;;;;2064696;28;20176;-57
2022/05/25 01:22:47;;;;;;;8.98;8.07;;;;;;;;;;2064987;28;20173;-57
2022/05/25 01:23:59;;;;;;;9.00;8.20;;;;;;;;;;2064760;28;20186;-60
2022/05/25 01:25:08;;;;;;;8.88;7.95;;;;;;;;;;2056879;28;20647;-57
2022/05/25 01:26:08;;;;;;;8.40;7.78;;;;;;;;;;2056745;28;20682;-55
2022/05/25 01:27:09;;;;;;;9.82;8.35;;;;;;;;;;2061418;28;20214;-57
2022/05/25 01:28:18;;;;;;;9.77;8.23;;;;;;;;;;2061329;28;20166;-57
2022/05/25 01:29:45;;;;;;;8.45;7.85;;;;;;;;;;2064763;28;20170;-58
2022/05/25 01:30:46;;;;;;;8.70;7.80;;;;;;;;;;2064965;28;20150;-56
2022/05/25 01:31:50;;;;;;;9.55;8.65;;;;;;;;;;2066152;28;20646;-59
2022/05/25 01:33:05;;;;;;;8.90;8.20;;;;;;;;;;2066260;28;20646;-60
2022/05/25 01:34:24;;;;;;;8.73;8.02;;;;;;;;;;2065185;28;20678;-57
2022/05/25 01:35:25;;;;;;;9.05;8.18;;;;;;;;;;2066412;28;20673;-61
2022/05/25 01:36:29;;;;;;;9.45;8.55;;;;;;;;;;2066150;28;20172;-58
2022/05/25 01:37:39;;;;;;;9.30;8.50;;;;;;;;;;2066157;28;20169;-56
2022/05/25 01:38:54;;;;;;;8.90;8.10;;;;;;;;;;2066240;28;20210;-56
2022/05/25 01:39:59;;;;;;;9.45;8.52;;;;;;;;;;2066030;28;20645;-57
2022/05/25 01:41:02;;;;;;;9.82;8.90;;;;;;;;;;2066078;28;20178;-58
2022/05/25 01:42:09;;;;;;;9.50;8.60;;;;;;;;;;2065529;28;20169;-57
2022/05/25 01:43:18;;;;;;;9.02;8.27;;;;;;;;;;2064010;28;20604;-56
2022/05/25 01:44:21;;;;;;;9.18;8.32;;;;;;;;;;2065445;28;20174;-57
2022/05/25 01:45:24;;;;;;;9.88;9.07;;;;;;;;;;2066150;28;20623;-56
2022/05/25 01:46:24;;;;;;;10.32;9.25;;;;;;;;;;2066376;28;20230;-55
2022/05/25 01:47:25;;;;;;;9.85;9.05;;;;;;;;;;2065088;28;20289;-58
2022/05/25 01:48:26;;;;;;;10.68;9.65;;;;;;;;;;2065704;28;20261;-57
2022/05/25 01:49:35;;;;;;;10.20;9.18;;;;;;;;;;2066062;28;20162;-56
2022/05/25 01:50:39;;;;;;;9.52;8.82;;;;;;;;;;2066349;28;20617;-58
2022/05/25 01:51:46;;;;;;;10.10;9.13;;;;;;;;;;2066181;28;20201;-57
2022/05/25 01:52:48;;;;;;;13.00;10.05;;;;;;;;;;2066282;28;20181;-57
2022/05/25 01:53:53;;;;;;;10.68;9.55;;;;;;;;;;2066075;28;20225;-59
2022/05/25 01:54:55;;;;;;;10.45;9.35;;;;;;;;;;2065485;28;20162;-58
2022/05/25 01:55:58;;;;;;;9.90;9.02;;;;;;;;;;2066352;28;20169;-60
2022/05/25 01:57:00;;;;;;;10.15;9.23;;;;;;;;;;2066095;28;20196;-59
2022/05/25 01:58:03;;;;;;;10.50;9.55;;;;;;;;;;2065879;28;20266;-56
2022/05/25 01:59:05;;;;;;;11.13;9.27;;;;;;;;;;2066147;28;20189;-58
2022/05/25 02:00:09;;;;;;;10.77;9.68;;;;;;;;;;2065978;28;20165;-56
2022/05/25 02:01:10;;;;;;;10.50;9.50;;;;;;;;;;2066126;28;20181;-57
2022/05/25 02:04:49;;;;;;;10.07;9.20;;;;;;;;;;2065181;28;20170;-60
2022/05/25 02:06:00;;;;;;;10.45;9.45;;;;;;;;;;2066041;28;20193;-58
2022/05/25 02:07:03;;;;;;;10.50;9.50;;;;;;;;;;2066066;28;20177;-59
2022/05/25 02:08:06;;;;;;;11.00;10.10;;;;;;;;;;2065418;28;20208;-58
2022/05/25 02:09:17;;;;;;;9.82;8.90;;;;;;;;;;2065657;28;20177;-59
2022/05/25 02:10:20;;;;;;;10.43;9.38;;;;;;;;;;2065194;28;20193;-59
2022/05/25 02:11:28;;;;;;;10.40;9.50;;;;;;;;;;2065461;28;20682;-59
2022/05/25 02:12:29;;;;;;;9.70;8.80;;;;;;;;;;2066295;28;20165;-59
2022/05/25 02:13:39;;;;;;;10.10;9.20;;;;;;;;;;2066075;28;20220;-59
2022/05/25 02:14:49;;;;;;;10.77;9.80;;;;;;;;;;2065042;28;20611;-54
2022/05/25 02:15:49;;;;;;;10.27;9.38;;;;;;;;;;2065859;28;20197;-58
2022/05/25 02:16:58;;;;;;;11.43;10.32;;;;;;;;;;2066150;28;20544;-60
2022/05/25 02:18:01;;;;;;;10.95;9.93;;;;;;;;;;2065932;28;20212;-58
2022/05/25 02:19:05;;;;;;;10.27;9.45;;;;;;;;;;2066073;28;20169;-56
2022/05/25 02:20:28;;;;;;;11.00;9.90;;;;;;;;;;2065633;28;20189;-56
2022/05/25 02:21:28;;;;;;;10.23;9.20;;;;;;;;;;2066032;28;20584;-59
2022/05/25 02:22:42;;;;;;;10.23;9.32;;;;;;;;;;2065986;28;20182;-58
2022/05/25 02:23:47;;;;;;;10.40;9.40;;;;;;;;;;2065902;28;20208;-58
2022/05/25 02:24:52;;;;;;;9.88;9.02;;;;;;;;;;2064153;28;20224;-58
2022/05/25 02:26:08;;;;;;;10.30;9.30;;;;;;;;;;2065388;28;20200;-58
2022/05/25 02:27:18;;;;;;;10.95;9.95;;;;;;;;;;2065383;28;20248;-58
2022/05/25 02:28:29;;;;;;;12.25;10.93;;;;;;;;;;2065377;28;20192;-58
2022/05/25 02:29:33;;;;;;;13.07;9.77;;;;;;;;;;2065532;28;20181;-58
2022/05/25 02:30:35;;;;;;;12.10;9.30;;;;;;;;;;2065678;28;20185;-57
2022/05/25 02:31:40;;;;;;;10.73;9.63;;;;;;;;;;2065952;28;20643;-58
2022/05/25 02:32:43;;;;;;;11.55;10.45;;;;;;;;;;2065603;28;20520;-57
2022/05/25 02:33:45;;;;;;;10.70;9.70;;;;;;;;;;2065113;28;20201;-58
2022/05/25 02:34:47;;;;;;;11.57;10.38;;;;;;;;;;2056284;28;20178;-57
2022/05/25 02:35:48;;;;;;;11.40;10.30;;;;;;;;;;2065381;28;20169;-58
2022/05/25 02:36:49;;;;;;;13.80;10.30;;;;;;;;;;2065834;28;20184;-58
2022/05/25 02:37:51;;;;;;;15.65;11.32;;;;;;;;;;2065989;28;20277;-58
2022/05/25 02:38:52;;;;;;;13.40;12.00;;;;;;;;;;2065831;28;20174;-57
2022/05/25 02:39:55;;;;;;;13.73;11.77;;;;;;;;;;2065715;28;20185;-59
2022/05/25 02:41:03;;;;;;;14.15;12.65;;;;;;;;;;2065824;28;20563;-57
2022/05/25 02:42:10;;;;;;;14.57;12.77;;;;;;;;;;2065769;28;20169;-58
2022/05/25 02:43:10;;;;;;;14.68;13.07;;;;;;;;;;2065747;28;20169;-58
2022/05/25 02:44:11;;;;;;;14.57;13.23;;;;;;;;;;2064980;28;20724;-57
2022/05/25 02:45:11;;;;;;;14.77;13.27;;;;;;;;;;2065375;28;20659;-58
2022/05/25 02:46:12;;;;;;;14.45;13.07;;;;;;;;;;2055091;28;20202;-59
2022/05/25 02:47:12;;;;;;;17.42;13.02;;;;;;;;;;2047170;28;20644;-57
2022/05/25 02:48:12;;;;;;;14.38;12.88;;;;;;;;;;2061069;28;20684;-57
2022/05/25 02:49:13;;;;;;;14.43;13.02;;;;;;;;;;2063191;28;20260;-55
2022/05/25 02:50:13;;;;;;;14.10;12.50;;;;;;;;;;2062670;28;20604;-57
2022/05/25 02:51:13;;;;;;;15.70;13.52;;;;;;;;;;2059856;28;20174;-57
2022/05/25 02:52:14;;;;;;;17.17;13.75;;;;;;;;;;2058648;28;20174;-56
2022/05/25 02:53:14;;;;;;;14.40;12.93;;;;;;;;;;2059190;28;20217;-58
2022/05/25 02:54:14;;;;;;;14.25;12.85;;;;;;;;;;2077633;23;20255;-59
2022/05/25 02:55:15;;;;;;;13.75;12.35;;;;;;;;;;2079782;28;20188;-54
2022/05/25 02:56:15;;;;;;;15.35;12.55;;;;;;;;;;2080130;28;20177;-60
2022/05/25 02:57:16;;;;;;;14.15;12.30;;;;;;;;;;2081915;28;20226;-62
2022/05/25 02:58:16;;;;;;;14.38;12.98;;;;;;;;;;2081049;28;20603;-56
2022/05/25 02:59:16;;;;;;;14.32;12.30;;;;;;;;;;2080641;28;20184;-59
2022/05/25 03:00:17;;;;;;;13.45;12.15;;;;;;;;;;2081387;28;20591;-57
2022/05/25 03:01:17;;;;;;;14.23;12.70;;;;;;;;;;2081809;28;20175;-57
2022/05/25 03:02:17;;;;;;;16.70;13.85;;;;;;;;;;2081260;28;20198;-56
2022/05/25 03:03:17;;;;;;;14.45;12.98;;;;;;;;;;2082022;28;20196;-62
2022/05/25 03:04:18;;;;;;;14.93;13.20;;;;;;;;;;2080162;28;20200;-60
2022/05/25 03:05:18;;;;;;;13.52;12.23;;;;;;;;;;2081211;28;20219;-55
2022/05/25 03:06:19;;;;;;;15.15;13.00;;;;;;;;;;2081688;28;20668;-61
2022/05/25 03:07:19;;;;;;;15.38;13.20;;;;;;;;;;2081861;28;20165;-58
2022/05/25 03:08:19;;;;;;;15.25;13.70;;;;;;;;;;2081685;28;20258;-57
2022/05/25 03:09:19;;;;;;;13.40;12.10;;;;;;;;;;2081834;28;20180;-58
2022/05/25 03:10:20;;;;;;;13.57;12.23;;;;;;;;;;2081839;28;20188;-59
2022/05/25 03:11:20;;;;;;;18.70;13.43;;;;;;;;;;2081078;28;20172;-58
2022/05/25 03:12:20;;;;;;;14.52;13.18;;;;;;;;;;2081655;28;20324;-63
2022/05/25 03:13:21;;;;;;;15.50;13.57;;;;;;;;;;2081436;28;20658;-60
2022/05/25 03:14:21;;;;;;;15.93;14.13;;;;;;;;;;2080769;28;20258;-59
2022/05/25 03:15:22;;;;;;;13.77;12.30;;;;;;;;;;2080956;28;20823;-61
2022/05/25 03:16:22;;;;;;;15.35;13.82;;;;;;;;;;2081281;28;20243;-59
2022/05/25 03:17:23;;;;;;;16.42;14.65;;;;;;;;;;2081746;28;20652;-56
2022/05/25 03:18:23;;;;;;;15.82;14.23;;;;;;;;;;2081276;28;20672;-60
2022/05/25 03:19:23;;;;;;;16.23;14.70;;;;;;;;;;2081453;28;20633;-59
2022/05/25 03:20:24;;;;;;;15.68;14.27;;;;;;;;;;2081544;28;20182;-62
2022/05/25 03:21:25;;;;;;;16.70;14.13;;;;;;;;;;2081538;28;20238;-59
2022/05/25 03:22:25;;;;;;;15.60;14.02;;;;;;;;;;2081934;28;20211;-57
2022/05/25 03:23:25;;;;;;;15.00;13.60;;;;;;;;;;2080947;28;20273;-56
2022/05/25 03:24:26;;;;;;;15.45;13.93;;;;;;;;;;2080127;28;20235;-59
2022/05/25 03:25:27;;;;;;;14.98;13.40;;;;;;;;;;2080772;28;20212;-61
2022/05/25 03:26:27;;;;;;;16.10;14.60;;;;;;;;;;2081118;28;20168;-61
2022/05/25 03:27:27;;;;;;;20.77;14.60;;;;;;;;;;2081545;28;20176;-56
2022/05/25 03:28:27;;;;;;;16.23;14.63;;;;;;;;;;2071165;28;20650;-60
2022/05/25 03:29:30;;;;;;;15.43;13.93;;;;;;;;;;2072721;28;20219;-61
2022/05/25 03:30:31;;;;;;;16.35;14.68;;;;;;;;;;2081732;28;20255;-55
2022/05/25 03:31:31;;;;;;;15.73;14.05;;;;;;;;;;2081622;28;20544;-61
2022/05/25 03:32:31;;;;;;;15.95;14.27;;;;;;;;;;2081893;28;20660;-61
2022/05/25 03:33:32;;;;;;;15.95;14.32;;;;;;;;;;2081265;28;20701;-60
2022/05/25 03:34:32;;;;;;;15.75;14.30;;;;;;;;;;2080674;28;20215;-58
2022/05/25 03:35:32;;;;;;;16.70;14.90;;;;;;;;;;2081680;28;20168;-60
2022/05/25 03:36:33;;;;;;;15.50;13.98;;;;;;;;;;2081698;28;20236;-61
2022/05/25 03:37:33;;;;;;;17.15;14.57;;;;;;;;;;2080939;28;20728;-56
2022/05/25 03:38:33;;;;;;;15.77;14.27;;;;;;;;;;2080828;28;20172;-55
2022/05/25 03:39:34;;;;;;;15.77;14.18;;;;;;;;;;2081604;28;20584;-62
2022/05/25 03:40:34;;;;;;;17.40;14.40;;;;;;;;;;2081613;28;20183;-60
2022/05/25 03:41:34;;;;;;;17.00;15.25;;;;;;;;;;2081563;28;20176;-60
2022/05/25 03:42:35;;;;;;;17.27;15.50;;;;;;;;;;2081530;28;20203;-59
2022/05/25 03:43:37;;;;;;;17.88;16.15;;;;;;;;;;2081499;28;20223;-59
2022/05/25 03:44:37;;;;;;;17.15;15.35;;;;;;;;;;2080350;28;20305;-60
2022/05/25 03:45:38;;;;;;;18.40;15.40;;;;;;;;;;2080944;28;20541;-58
2022/05/25 03:46:39;;;;;;;19.33;16.52;;;;;;;;;;2080967;28;20179;-53
2022/05/25 03:47:39;;;;;;;17.80;15.63;;;;;;;;;;2074786;28;20219;-59
2022/05/25 03:48:40;;;;;;;17.45;15.73;;;;;;;;;;2075837;28;20652;-59
2022/05/25 03:49:40;;;;;;;17.45;15.75;;;;;;;;;;2081517;28;20164;-58
2022/05/25 03:50:41;;;;;;;18.30;15.65;;;;;;;;;;2081527;28;20649;-61
2022/05/25 03:51:42;;;;;;;19.20;16.15;;;;;;;;;;2081760;28;20184;-58
2022/05/25 03:52:42;;;;;;;18.08;15.95;;;;;;;;;;2081695;28;20157;-60
2022/05/25 03:53:43;;;;;;;18.67;15.65;;;;;;;;;;2080849;28;20712;-61
2022/05/25 03:54:43;;;;;;;18.27;16.33;;;;;;;;;;2079993;28;20672;-56
2022/05/25 03:55:43;;;;;;;16.75;15.07;;;;;;;;;;2081620;28;20688;-56
2022/05/25 03:56:44;;;;;;;17.73;15.23;;;;;;;;;;2081315;28;20200;-57
2022/05/25 03:57:44;;;;;;;16.50;14.80;;;;;;;;;;2081514;28;20175;-59
2022/05/25 03:58:46;;;;;;;21.23;16.33;;;;;;;;;;2081147;28;20180;-59
2022/05/25 03:59:46;;;;;;;17.38;15.57;;;;;;;;;;2080588;28;20524;-60
2022/05/25 04:00:47;;;;;;;16.50;15.02;;;;;;;;;;2080666;28;20187;-59
2022/05/25 04:01:47;;;;;;;17.55;15.32;;;;;;;;;;2081490;28;20189;-61
2022/05/25 04:02:47;;;;;;;17.75;15.98;;;;;;;;;;2080645;28;20202;-59
2022/05/25 04:03:48;;;;;;;18.17;16.17;;;;;;;;;;2080974;28;20184;-60
2022/05/25 04:05:07;;;;;;;16.58;14.90;;;;;;;;;;2079766;28;20199;-57
2022/05/25 04:06:07;;;;;;;16.98;15.23;;;;;;;;;;2081526;28;20164;-56
2022/05/25 04:07:07;;;;;;;17.52;15.40;;;;;;;;;;2081336;28;20675;-57
2022/05/25 04:08:08;;;;;;;16.45;14.68;;;;;;;;;;2081472;28;20641;-60
2022/05/25 04:09:10;;;;;;;16.42;14.75;;;;;;;;;;2081323;28;20168;-57
2022/05/25 04:10:13;;;;;;;16.92;15.20;;;;;;;;;;2081747;28;20195;-60
2022/05/25 04:11:13;;;;;;;16.30;14.63;;;;;;;;;;2081826;28;20223;-61
2022/05/25 04:12:13;;;;;;;17.38;15.68;;;;;;;;;;2081946;28;20164;-61
2022/05/25 04:13:13;;;;;;;16.15;14.52;;;;;;;;;;2081419;28;20188;-58
2022/05/25 04:14:15;;;;;;;16.80;15.15;;;;;;;;;;2081131;28;20199;-58
2022/05/25 04:15:17;;;;;;;16.35;14.63;;;;;;;;;;2081554;28;20176;-62
2022/05/25 04:16:17;;;;;;;17.25;15.57;;;;;;;;;;2081523;28;20563;-61
2022/05/25 04:17:19;;;;;;;16.60;14.93;;;;;;;;;;2081576;28;20169;-59
2022/05/25 04:18:19;;;;;;;17.80;14.68;;;;;;;;;;2081396;28;20204;-61
2022/05/25 04:19:19;;;;;;;16.27;14.73;;;;;;;;;;2081258;28;20168;-60
2022/05/25 04:20:21;;;;;;;16.17;14.65;;;;;;;;;;2081627;28;20180;-58
2022/05/25 04:21:21;;;;;;;17.90;15.32;;;;;;;;;;2080805;28;20168;-60
2022/05/25 04:22:21;;;;;;;16.48;14.77;;;;;;;;;;2080841;28;20192;-57
2022/05/25 04:23:24;;;;;;;16.38;14.85;;;;;;;;;;2081401;28;20202;-60
2022/05/25 04:24:24;;;;;;;16.13;14.55;;;;;;;;;;2080447;28;20286;-59
2022/05/25 04:25:24;;;;;;;16.45;14.93;;;;;;;;;;2081729;28;20672;-59
2022/05/25 04:26:25;;;;;;;17.52;15.27;;;;;;;;;;2081730;28;20180;-62
2022/05/25 04:27:25;;;;;;;16.08;14.48;;;;;;;;;;2081595;28;20184;-61
2022/05/25 04:28:26;;;;;;;17.98;15.68;;;;;;;;;;2081228;28;20667;-60
2022/05/25 04:29:26;;;;;;;16.80;14.98;;;;;;;;;;2081097;28;20171;-59
2022/05/25 04:30:27;;;;;;;17.55;14.73;;;;;;;;;;2081642;28;20180;-58
2022/05/25 04:31:28;;;;;;;16.63;15.07;;;;;;;;;;2081165;28;20252;-55
2022/05/25 04:32:28;;;;;;;16.42;14.80;;;;;;;;;;2081438;28;20180;-57
2022/05/25 04:33:29;;;;;;;17.30;15.60;;;;;;;;;;2081446;28;20239;-58
2022/05/25 04:34:29;;;;;;;16.80;15.10;;;;;;;;;;2077874;28;20223;-60
2022/05/25 04:35:29;;;;;;;17.67;15.25;;;;;;;;;;2080780;28;20212;-58
2022/05/25 04:36:30;;;;;;;17.10;15.43;;;;;;;;;;2081263;28;20173;-58
2022/05/25 04:37:48;;;;;;;16.20;14.60;;;;;;;;;;2080895;28;20636;-60
2022/05/25 04:38:49;;;;;;;18.60;15.13;;;;;;;;;;2075048;28;20248;-57
2022/05/25 04:39:49;;;;;;;16.63;14.93;;;;;;;;;;2080848;28;20609;-60
2022/05/25 04:40:49;;;;;;;16.17;14.68;;;;;;;;;;2080603;28;20164;-60
2022/05/25 04:41:50;;;;;;;15.40;13.90;;;;;;;;;;2076526;28;20173;-61
2022/05/25 04:42:50;;;;;;;16.65;14.85;;;;;;;;;;2073051;28;20181;-58
2022/05/25 04:43:50;;;;;;;16.17;14.60;;;;;;;;;;2073080;28;20200;-58
2022/05/25 04:44:50;;;;;;;17.63;14.75;;;;;;;;;;2075020;28;20203;-58
2022/05/25 04:45:52;;;;;;;15.93;14.45;;;;;;;;;;2081347;28;20668;-59
2022/05/25 04:46:52;;;;;;;16.30;14.60;;;;;;;;;;2081284;28;20199;-62
2022/05/25 04:47:53;;;;;;;16.52;14.88;;;;;;;;;;2081473;28;20242;-61
2022/05/25 04:48:53;;;;;;;15.77;14.18;;;;;;;;;;2081217;28;20165;-59
2022/05/25 04:49:54;;;;;;;16.50;14.75;;;;;;;;;;2081173;28;20594;-57
2022/05/25 04:50:56;;;;;;;15.98;14.50;;;;;;;;;;2081322;28;20187;-60
2022/05/25 04:51:57;;;;;;;16.33;14.73;;;;;;;;;;2081417;28;20184;-62
2022/05/25 04:52:59;;;;;;;16.02;14.50;;;;;;;;;;2081421;28;20259;-57
2022/05/25 04:53:59;;;;;;;15.80;14.30;;;;;;;;;;2079793;28;20168;-60
2022/05/25 04:54:59;;;;;;;15.68;13.70;;;;;;;;;;2078710;28;20169;-59
2022/05/25 04:57:19;;;;;;;14.52;13.13;;;;;;;;;;2081289;28;20555;-59
2022/05/25 04:58:20;;;;;;;15.18;13.75;;;;;;;;;;2080804;28;20243;-58
2022/05/25 04:59:21;;;;;;;16.20;14.45;;;;;;;;;;2080461;28;20230;-59
2022/05/25 05:00:21;;;;;;;16.95;14.40;;;;;;;;;;2081638;28;20169;-60
2022/05/25 05:01:22;;;;;;;14.77;13.25;;;;;;;;;;2081385;28;20173;-60
2022/05/25 05:02:22;;;;;;;14.52;13.00;;;;;;;;;;2079711;28;20218;-60
2022/05/25 05:03:23;;;;;;;16.02;13.75;;;;;;;;;;2072993;28;20158;-60
2022/05/25 05:04:26;;;;;;;16.25;13.85;;;;;;;;;;2074539;28;20259;-54
2022/05/25 05:05:26;;;;;;;16.35;14.80;;;;;;;;;;2081782;28;20219;-60
2022/05/25 05:06:26;;;;;;;15.15;13.50;;;;;;;;;;2082220;28;20218;-60
2022/05/25 05:07:31;;;;;;;14.80;13.40;;;;;;;;;;2082295;28;20169;-59
2022/05/25 05:08:31;;;;;;;14.32;13.02;;;;;;;;;;2082981;28;20168;-59
2022/05/25 05:09:32;;;;;;;14.88;13.25;;;;;;;;;;2082070;28;20176;-60
2022/05/25 05:10:32;;;;;;;14.60;13.07;;;;;;;;;;2081979;28;20172;-61
2022/05/25 05:11:32;;;;;;;15.40;13.88;;;;;;;;;;2081671;28;20180;-60
2022/05/25 05:12:32;;;;;;;15.88;14.40;;;;;;;;;;2082046;28;20544;-60
2022/05/25 05:13:33;;;;;;;15.30;13.85;;;;;;;;;;2082602;28;20637;-58
2022/05/25 05:14:33;;;;;;;14.18;12.88;;;;;;;;;;2082014;28;20700;-61
2022/05/25 05:15:35;;;;;;;13.70;12.43;;;;;;;;;;2082309;28;20164;-62
2022/05/25 05:16:35;;;;;;;14.35;12.95;;;;;;;;;;2082973;28;20179;-60
2022/05/25 05:17:48;;;;;;;13.40;12.10;;;;;;;;;;2082169;28;20180;-56
2022/05/25 05:19:12;;;;;;;14.35;11.90;;;;;;;;;;2074336;28;20176;-64
2022/05/25 05:20:31;;;;;;;13.25;11.90;;;;;;;;;;2081834;28;20618;-59
2022/05/25 05:21:31;;;;;;;12.75;11.55;;;;;;;;;;2082311;28;20176;-60
2022/05/25 05:22:31;;;;;;;13.68;12.35;;;;;;;;;;2082825;28;20215;-60
2022/05/25 05:23:31;;;;;;;12.57;11.25;;;;;;;;;;2082789;28;20164;-60
2022/05/25 05:24:32;;;;;;;14.80;12.85;;;;;;;;;;2081747;28;20250;-60
2022/05/25 05:25:34;;;;;;;13.48;12.02;;;;;;;;;;2082534;28;20168;-53
2022/05/25 05:26:36;;;;;;;13.23;11.43;;;;;;;;;;2082707;28;20611;-61
2022/05/25 05:27:36;;;;;;;11.82;10.73;;;;;;;;;;2082930;28;21131;-61
2022/05/25 05:28:38;;;;;;;12.23;11.10;;;;;;;;;;2082607;28;20183;-65
2022/05/25 05:29:38;;;;;;;12.43;11.23;;;;;;;;;;2082428;28;20184;-57
2022/05/25 05:30:39;;;;;;;12.15;10.93;;;;;;;;;;2082844;28;20173;-61
2022/05/25 05:31:40;;;;;;;14.23;10.68;;;;;;;;;;2082761;28;20462;-55
2022/05/25 05:32:40;;;;;;;11.13;10.20;;;;;;;;;;2082648;28;20207;-58
2022/05/25 05:33:40;;;;;;;12.07;10.93;;;;;;;;;;2082547;28;20176;-60
2022/05/25 05:34:41;;;;;;;11.43;10.27;;;;;;;;;;2081460;28;20594;-59
2022/05/25 05:35:43;;;;;;;11.80;10.77;;;;;;;;;;2082236;28;20238;-62
2022/05/25 05:36:47;;;;;;;11.80;10.60;;;;;;;;;;2081978;28;20169;-57
2022/05/25 05:37:49;;;;;;;11.40;10.23;;;;;;;;;;2082644;28;20172;-62
2022/05/25 05:38:53;;;;;;;11.88;10.77;;;;;;;;;;2082320;28;20164;-59
2022/05/25 05:39:55;;;;;;;11.20;10.10;;;;;;;;;;2073727;28;20216;-60
2022/05/25 05:40:55;;;;;;;10.45;9.32;;;;;;;;;;2073728;28;20165;-63
2022/05/25 05:41:57;;;;;;;11.98;10.70;;;;;;;;;;2082735;28;20157;-56
2022/05/25 05:42:59;;;;;;;11.13;10.13;;;;;;;;;;2081923;28;20231;-58
2022/05/25 05:43:59;;;;;;;10.57;9.65;;;;;;;;;;2080794;28;20688;-59
2022/05/25 05:45:01;;;;;;;11.27;10.07;;;;;;;;;;2087403;28;20207;-59
2022/05/25 05:46:01;;;;;;;10.82;9.90;;;;;;;;;;2082203;28;20169;-60
2022/05/25 05:47:03;;;;;;;9.98;8.98;;;;;;;;;;2080643;28;20245;-58
2022/05/25 05:48:06;;;;;;;13.35;10.20;;;;;;;;;;2076574;28;20168;-61
2022/05/25 05:49:07;;;;;;;11.18;10.25;;;;;;;;;;2082264;28;20242;-60
2022/05/25 05:50:09;;;;;;;10.25;9.23;;;;;;;;;;2086279;28;20559;-61
2022/05/25 05:51:11;;;;;;;12.50;9.65;;;;;;;;;;2085845;28;20226;-56
2022/05/25 05:52:11;;;;;;;10.55;9.55;;;;;;;;;;2086044;28;20180;-64
2022/05/25 05:53:12;;;;;;;10.20;8.75;;;;;;;;;;2085782;28;20191;-62
2022/05/25 05:54:12;;;;;;;10.32;9.10;;;;;;;;;;2086342;28;20239;-60
2022/05/25 05:55:13;;;;;;;10.15;8.77;;;;;;;;;;2081181;28;20900;-65
2022/05/25 05:56:13;;;;;;;11.45;9.27;;;;;;;;;;2082098;28;20206;-64
2022/05/25 05:57:14;;;;;;;11.10;9.05;;;;;;;;;;2076791;28;20565;-64
2022/05/25 05:58:14;;;;;;;10.35;9.40;;;;;;;;;;2077310;28;20231;-62
2022/05/25 05:59:15;;;;;;;10.40;9.05;;;;;;;;;;2078502;28;20621;-62
2022/05/25 06:00:16;;;;;;;9.73;8.63;;;;;;;;;;2076106;28;20181;-62
2022/05/25 06:01:16;;;;;;;9.40;8.55;;;;;;;;;;2082289;28;20194;-63
2022/05/25 06:02:16;;;;;;;9.55;8.75;;;;;;;;;;2080949;28;20191;-64
2022/05/25 06:03:18;;;;;;;10.98;9.88;;;;;;;;;;2080927;28;20175;-64
2022/05/25 06:04:18;;;;;;;11.00;9.90;;;;;;;;;;2076048;28;20692;-60
2022/05/25 06:05:18;;;;;;;10.20;9.20;;;;;;;;;;2078650;28;20195;-63
2022/05/25 06:06:19;;;;;;;10.35;8.88;;;;;;;;;;2077029;28;20172;-63
2022/05/25 06:07:19;;;;;;;9.55;8.38;;;;;;;;;;2078381;28;20207;-58
2022/05/25 06:08:21;;;;;;;10.13;9.13;;;;;;;;;;2076743;28;20172;-61
2022/05/25 06:09:21;;;;;;;8.95;8.02;;;;;;;;;;2077180;28;20195;-64
2022/05/25 06:10:21;;;;;;;9.75;8.80;;;;;;;;;;2078333;28;20690;-63
2022/05/25 06:11:22;;;;;;;11.13;8.80;;;;;;;;;;2076933;28;20217;-62